Terminal Aerodrome Forecast
Issued by NWS Shreveport, LA

Home | Current Version | Previous Version | Text Only | Print | Product List | Glossary On
Versions: 1 2 3 4 5 6 7 8 9 10 11 12 13 14 15 16 17 18 19 20
000
FTUS44 KSHV 221720
TAFSHV
TAF
KSHV 221720Z 2218/2318 28015G25KT P6SM VCSH SCT100
      TEMPO 2219/2223 31020G35KT P6SM -SHRA BKN080
     FM222300 31020G35KT P6SM VCSH SCT035 BKN080
      TEMPO 2223/2303 BKN030
     FM230300 31018G28KT P6SM SCT050
     FM230600 32014G21KT P6SM SKC
     FM231200 31010KT P6SM SKC=

USA.gov is the U.S. government's official web portal to all federal, state and local government web resources and services.